sensor_id;sensor_type;location;lat;lon;timestamp;pressure;altitude;pressure_sealevel;temperature;humidity
43155;BME280;34212;51.018;13.586;2023-02-22T00:04:49;97925.19;;;9.51;83.02
43155;BME280;34212;51.018;13.586;2023-02-22T00:09:51;97931.34;;;9.52;83.51
43155;BME280;34212;51.018;13.586;2023-02-22T00:14:52;97919.88;;;9.51;84.30
43155;BME280;34212;51.018;13.586;2023-02-22T00:19:54;97922.53;;;9.51;83.46
43155;BME280;34212;51.018;13.586;2023-02-22T00:24:56;97912.25;;;9.40;84.00
43155;BME280;34212;51.018;13.586;2023-02-22T00:29:57;97916.91;;;9.30;84.02
43155;BME280;34212;51.018;13.586;2023-02-22T00:35:01;97914.44;;;9.20;84.33
43155;BME280;34212;51.018;13.586;2023-02-22T00:40:11;97911.28;;;9.08;84.24
43155;BME280;34212;51.018;13.586;2023-02-22T00:45:17;97910.97;;;8.95;84.11
43155;BME280;34212;51.018;13.586;2023-02-22T00:50:19;97909.66;;;8.83;84.16
43155;BME280;34212;51.018;13.586;2023-02-22T00:55:26;97908.66;;;8.75;84.09
43155;BME280;34212;51.018;13.586;2023-02-22T01:00:33;97907.97;;;8.73;84.34
43155;BME280;34212;51.018;13.586;2023-02-22T01:05:36;97914.94;;;8.74;84.97
43155;BME280;34212;51.018;13.586;2023-02-22T01:10:41;97905.81;;;8.77;84.43
43155;BME280;34212;51.018;13.586;2023-02-22T01:15:43;97918.78;;;8.80;84.89
43155;BME280;34212;51.018;13.586;2023-02-22T01:20:45;97907.63;;;8.85;85.10
43155;BME280;34212;51.018;13.586;2023-02-22T01:25:48;97910.97;;;8.87;85.08
43155;BME280;34212;51.018;13.586;2023-02-22T01:30:50;97908.97;;;8.89;85.33
43155;BME280;34212;51.018;13.586;2023-02-22T01:35:52;97903.34;;;8.92;85.12
43155;BME280;34212;51.018;13.586;2023-02-22T01:40:53;97902.66;;;8.98;85.34
43155;BME280;34212;51.018;13.586;2023-02-22T01:46:02;97900.00;;;8.98;85.24
43155;BME280;34212;51.018;13.586;2023-02-22T01:51:09;97895.66;;;8.97;84.99
43155;BME280;34212;51.018;13.586;2023-02-22T01:56:13;97892.34;;;8.95;85.39
43155;BME280;34212;51.018;13.586;2023-02-22T02:01:15;97891.69;;;8.93;85.28
43155;BME280;34212;51.018;13.586;2023-02-22T02:06:19;97892.69;;;8.92;85.50
43155;BME280;34212;51.018;13.586;2023-02-22T02:11:23;97882.69;;;8.94;85.61
43155;BME280;34212;51.018;13.586;2023-02-22T02:16:33;97879.88;;;8.95;85.19
43155;BME280;34212;51.018;13.586;2023-02-22T02:42:40;97861.09;;;9.05;85.58
43155;BME280;34212;51.018;13.586;2023-02-22T02:47:47;97860.59;;;9.01;86.39
43155;BME280;34212;51.018;13.586;2023-02-22T02:52:53;97863.06;;;9.03;86.74
43155;BME280;34212;51.018;13.586;2023-02-22T02:57:57;97862.41;;;9.09;85.56
43155;BME280;34212;51.018;13.586;2023-02-22T03:08:38;97842.78;;;9.10;85.96
43155;BME280;34212;51.018;13.586;2023-02-22T03:14:13;97845.47;;;9.02;85.65
43155;BME280;34212;51.018;13.586;2023-02-22T03:19:24;97846.97;;;8.96;85.81
43155;BME280;34212;51.018;13.586;2023-02-22T03:25:07;97845.13;;;8.97;86.15
43155;BME280;34212;51.018;13.586;2023-02-22T03:30:21;97833.84;;;8.95;86.44
43155;BME280;34212;51.018;13.586;2023-02-22T03:35:27;97834.66;;;8.87;85.97
43155;BME280;34212;51.018;13.586;2023-02-22T03:40:34;97830.88;;;8.73;85.09
43155;BME280;34212;51.018;13.586;2023-02-22T03:45:39;97830.53;;;8.68;85.43
43155;BME280;34212;51.018;13.586;2023-02-22T03:50:43;97830.56;;;8.60;85.94
43155;BME280;34212;51.018;13.586;2023-02-22T03:55:47;97827.72;;;8.45;85.18
43155;BME280;34212;51.018;13.586;2023-02-22T04:00:56;97838.97;;;8.31;84.66
43155;BME280;34212;51.018;13.586;2023-02-22T04:05:57;97842.28;;;8.25;85.88
43155;BME280;34212;51.018;13.586;2023-02-22T04:10:59;97838.13;;;8.30;86.19
43155;BME280;34212;51.018;13.586;2023-02-22T04:16:04;97833.38;;;8.42;86.19
43155;BME280;34212;51.018;13.586;2023-02-22T04:21:06;97834.88;;;8.45;86.09
43155;BME280;34212;51.018;13.586;2023-02-22T04:26:14;97835.53;;;8.39;85.54
43155;BME280;34212;51.018;13.586;2023-02-22T04:31:20;97830.81;;;8.24;85.32
43155;BME280;34212;51.018;13.586;2023-02-22T04:36:23;97839.13;;;8.13;85.38
43155;BME280;34212;51.018;13.586;2023-02-22T04:41:26;97833.97;;;8.12;85.74
43155;BME280;34212;51.018;13.586;2023-02-22T04:46:28;97833.13;;;8.11;85.95
43155;BME280;34212;51.018;13.586;2023-02-22T04:51:30;97831.31;;;8.12;86.31
43155;BME280;34212;51.018;13.586;2023-02-22T04:56:39;97835.16;;;8.17;86.29
43155;BME280;34212;51.018;13.586;2023-02-22T05:01:40;97831.97;;;8.22;86.82
43155;BME280;34212;51.018;13.586;2023-02-22T05:06:42;97834.47;;;8.31;86.81
43155;BME280;34212;51.018;13.586;2023-02-22T05:11:45;97840.66;;;8.40;86.74
43155;BME280;34212;51.018;13.586;2023-02-22T05:16:48;97831.88;;;8.48;87.11
43155;BME280;34212;51.018;13.586;2023-02-22T05:21:49;97824.06;;;8.54;88.27
43155;BME280;34212;51.018;13.586;2023-02-22T05:26:51;97826.91;;;8.61;87.43
43155;BME280;34212;51.018;13.586;2023-02-22T05:31:53;97825.56;;;8.65;87.60
43155;BME280;34212;51.018;13.586;2023-02-22T05:36:55;97820.91;;;8.67;87.57
43155;BME280;34212;51.018;13.586;2023-02-22T05:41:56;97821.25;;;8.64;86.97
43155;BME280;34212;51.018;13.586;2023-02-22T05:46:58;97832.03;;;8.63;86.90
43155;BME280;34212;51.018;13.586;2023-02-22T05:51:59;97822.41;;;8.62;87.50
43155;BME280;34212;51.018;13.586;2023-02-22T05:57:01;97835.88;;;8.60;88.03
43155;BME280;34212;51.018;13.586;2023-02-22T06:02:02;97826.91;;;8.61;87.13
43155;BME280;34212;51.018;13.586;2023-02-22T06:07:04;97840.84;;;8.63;87.20
43155;BME280;34212;51.018;13.586;2023-02-22T06:12:07;97827.72;;;8.62;87.74
43155;BME280;34212;51.018;13.586;2023-02-22T06:17:09;97828.88;;;8.59;87.23
43155;BME280;34212;51.018;13.586;2023-02-22T06:22:17;97829.06;;;8.58;87.34
43155;BME280;34212;51.018;13.586;2023-02-22T06:27:18;97832.34;;;8.60;87.18
43155;BME280;34212;51.018;13.586;2023-02-22T06:32:20;97836.53;;;8.62;87.17
43155;BME280;34212;51.018;13.586;2023-02-22T06:37:21;97844.34;;;8.64;88.21
43155;BME280;34212;51.018;13.586;2023-02-22T06:42:23;97845.84;;;8.66;88.03
43155;BME280;34212;51.018;13.586;2023-02-22T06:47:24;97848.16;;;8.69;87.76
43155;BME280;34212;51.018;13.586;2023-02-22T06:52:26;97841.50;;;8.73;87.83
43155;BME280;34212;51.018;13.586;2023-02-22T06:57:27;97858.13;;;8.84;87.89
43155;BME280;34212;51.018;13.586;2023-02-22T07:02:29;97855.13;;;8.95;88.05
43155;BME280;34212;51.018;13.586;2023-02-22T07:07:30;97852.44;;;9.03;88.29
43155;BME280;34212;51.018;13.586;2023-02-22T07:12:32;97854.06;;;9.12;88.47
43155;BME280;34212;51.018;13.586;2023-02-22T07:17:33;97859.41;;;9.20;88.07
43155;BME280;34212;51.018;13.586;2023-02-22T07:22:34;97856.72;;;9.29;88.74
43155;BME280;34212;51.018;13.586;2023-02-22T07:27:37;97860.50;;;9.34;88.56
43155;BME280;34212;51.018;13.586;2023-02-22T07:32:39;97855.34;;;9.41;89.07
43155;BME280;34212;51.018;13.586;2023-02-22T07:37:42;97865.31;;;9.47;89.36
43155;BME280;34212;51.018;13.586;2023-02-22T07:42:59;97861.25;;;9.59;88.59
43155;BME280;34212;51.018;13.586;2023-02-22T07:48:03;97863.56;;;9.70;89.10
43155;BME280;34212;51.018;13.586;2023-02-22T07:53:09;97856.66;;;9.84;88.58
43155;BME280;34212;51.018;13.586;2023-02-22T07:58:13;97850.78;;;9.97;89.35
43155;BME280;34212;51.018;13.586;2023-02-22T08:03:17;97855.56;;;10.10;89.01
43155;BME280;34212;51.018;13.586;2023-02-22T08:08:19;97859.28;;;10.24;89.40
43155;BME280;34212;51.018;13.586;2023-02-22T08:13:21;97857.56;;;10.39;88.77
43155;BME280;34212;51.018;13.586;2023-02-22T08:18:24;97851.81;;;10.50;88.88
43155;BME280;34212;51.018;13.586;2023-02-22T08:23:25;97864.72;;;10.61;89.01
43155;BME280;34212;51.018;13.586;2023-02-22T08:28:27;97867.31;;;10.70;88.93
43155;BME280;34212;51.018;13.586;2023-02-22T08:33:29;97857.44;;;10.78;88.81
43155;BME280;34212;51.018;13.586;2023-02-22T08:38:31;97851.63;;;10.90;89.21
43155;BME280;34212;51.018;13.586;2023-02-22T08:43:34;97852.03;;;11.01;89.24
43155;BME280;34212;51.018;13.586;2023-02-22T08:48:35;97857.56;;;11.15;88.86
43155;BME280;34212;51.018;13.586;2023-02-22T08:53:37;97852.81;;;11.25;88.87
43155;BME280;34212;51.018;13.586;2023-02-22T08:58:38;97853.00;;;11.38;88.64
43155;BME280;34212;51.018;13.586;2023-02-22T09:03:39;97848.84;;;11.50;88.43
43155;BME280;34212;51.018;13.586;2023-02-22T09:08:41;97853.91;;;11.60;88.24
43155;BME280;34212;51.018;13.586;2023-02-22T09:13:42;97851.53;;;11.65;87.89
43155;BME280;34212;51.018;13.586;2023-02-22T09:18:44;97847.25;;;11.71;87.77
43155;BME280;34212;51.018;13.586;2023-02-22T09:23:46;97843.84;;;11.77;87.97
43155;BME280;34212;51.018;13.586;2023-02-22T09:28:49;97841.63;;;11.80;87.46
43155;BME280;34212;51.018;13.586;2023-02-22T09:33:50;97846.09;;;11.88;87.59
43155;BME280;34212;51.018;13.586;2023-02-22T09:38:52;97845.34;;;11.94;87.27
43155;BME280;34212;51.018;13.586;2023-02-22T09:44:10;97833.44;;;11.97;86.70
43155;BME280;34212;51.018;13.586;2023-02-22T09:49:35;97833.06;;;12.00;86.50
43155;BME280;34212;51.018;13.586;2023-02-22T09:54:42;97826.78;;;12.08;87.17
43155;BME280;34212;51.018;13.586;2023-02-22T10:00:37;97819.63;;;12.15;86.17
43155;BME280;34212;51.018;13.586;2023-02-22T10:05:38;97824.88;;;12.23;86.44
43155;BME280;34212;51.018;13.586;2023-02-22T10:10:45;97827.25;;;12.33;85.87
43155;BME280;34212;51.018;13.586;2023-02-22T10:21:22;97813.69;;;12.56;85.52
43155;BME280;34212;51.018;13.586;2023-02-22T10:26:28;97804.50;;;12.65;85.46
43155;BME280;34212;51.018;13.586;2023-02-22T10:31:34;97798.63;;;12.76;85.05
43155;BME280;34212;51.018;13.586;2023-02-22T10:36:38;97807.50;;;12.83;84.91
43155;BME280;34212;51.018;13.586;2023-02-22T10:41:44;97803.88;;;12.91;84.54
43155;BME280;34212;51.018;13.586;2023-02-22T10:46:49;97800.84;;;13.01;84.60
43155;BME280;34212;51.018;13.586;2023-02-22T10:51:59;97790.00;;;13.09;83.35
43155;BME280;34212;51.018;13.586;2023-02-22T10:57:01;97794.19;;;13.18;83.81
43155;BME280;34212;51.018;13.586;2023-02-22T11:02:31;97785.63;;;13.29;82.73
43155;BME280;34212;51.018;13.586;2023-02-22T11:07:35;97788.13;;;13.31;83.07
43155;BME280;34212;51.018;13.586;2023-02-22T11:12:39;97777.81;;;13.34;83.05
43155;BME280;34212;51.018;13.586;2023-02-22T11:17:42;97783.00;;;13.43;83.36
43155;BME280;34212;51.018;13.586;2023-02-22T11:22:45;97771.88;;;13.46;82.71
43155;BME280;34212;51.018;13.586;2023-02-22T11:27:47;97772.53;;;13.48;82.30
43155;BME280;34212;51.018;13.586;2023-02-22T11:32:52;97764.72;;;13.53;82.27
43155;BME280;34212;51.018;13.586;2023-02-22T11:38:14;97757.34;;;13.61;81.63
43155;BME280;34212;51.018;13.586;2023-02-22T11:43:18;97757.38;;;13.68;82.13
43155;BME280;34212;51.018;13.586;2023-02-22T11:48:20;97755.75;;;13.74;82.11
43155;BME280;34212;51.018;13.586;2023-02-22T11:53:31;97745.44;;;13.77;80.79
43155;BME280;34212;51.018;13.586;2023-02-22T11:58:45;97743.19;;;13.81;81.24
43155;BME280;34212;51.018;13.586;2023-02-22T12:04:53;97730.78;;;13.80;80.62
43155;BME280;34212;51.018;13.586;2023-02-22T12:14:59;97732.88;;;13.78;80.65
43155;BME280;34212;51.018;13.586;2023-02-22T12:25:20;97728.97;;;13.80;80.73
43155;BME280;34212;51.018;13.586;2023-02-22T12:35:30;97722.16;;;13.91;80.80
43155;BME280;34212;51.018;13.586;2023-02-22T12:46:20;97722.41;;;13.96;80.32
43155;BME280;34212;51.018;13.586;2023-02-22T12:51:33;97719.50;;;13.98;80.02
43155;BME280;34212;51.018;13.586;2023-02-22T12:56:53;97718.09;;;14.02;80.44
43155;BME280;34212;51.018;13.586;2023-02-22T13:18:04;97712.47;;;13.83;79.45
43155;BME280;34212;51.018;13.586;2023-02-22T13:23:32;97716.97;;;13.76;79.70
43155;BME280;34212;51.018;13.586;2023-02-22T13:39:04;97707.69;;;13.66;80.15
43155;BME280;34212;51.018;13.586;2023-02-22T13:54:43;97714.66;;;13.53;80.70
43155;BME280;34212;51.018;13.586;2023-02-22T13:59:47;97707.84;;;13.51;80.98
43155;BME280;34212;51.018;13.586;2023-02-22T14:04:48;97712.38;;;13.50;80.90
43155;BME280;34212;51.018;13.586;2023-02-22T14:09:51;97706.38;;;13.48;80.46
43155;BME280;34212;51.018;13.586;2023-02-22T14:15:13;97709.88;;;13.49;79.96
43155;BME280;34212;51.018;13.586;2023-02-22T14:20:32;97699.59;;;13.52;80.77
43155;BME280;34212;51.018;13.586;2023-02-22T14:25:39;97693.22;;;13.60;80.31
43155;BME280;34212;51.018;13.586;2023-02-22T14:30:41;97692.19;;;13.61;80.89
43155;BME280;34212;51.018;13.586;2023-02-22T14:35:43;97679.81;;;13.53;80.69
43155;BME280;34212;51.018;13.586;2023-02-22T14:40:59;97673.63;;;13.46;80.15
43155;BME280;34212;51.018;13.586;2023-02-22T14:46:04;97678.53;;;13.43;80.04
43155;BME280;34212;51.018;13.586;2023-02-22T14:51:28;97675.00;;;13.35;79.91
43155;BME280;34212;51.018;13.586;2023-02-22T14:56:51;97670.84;;;13.26;79.57
43155;BME280;34212;51.018;13.586;2023-02-22T15:02:06;97662.53;;;13.14;79.72
43155;BME280;34212;51.018;13.586;2023-02-22T15:07:21;97664.75;;;13.04;79.60
43155;BME280;34212;51.018;13.586;2023-02-22T15:12:27;97666.78;;;12.95;80.82
43155;BME280;34212;51.018;13.586;2023-02-22T15:17:32;97653.16;;;12.84;80.73
43155;BME280;34212;51.018;13.586;2023-02-22T15:22:34;97649.56;;;12.70;80.41
43155;BME280;34212;51.018;13.586;2023-02-22T15:27:45;97643.50;;;12.55;79.86
43155;BME280;34212;51.018;13.586;2023-02-22T15:32:48;97647.13;;;12.40;80.78
43155;BME280;34212;51.018;13.586;2023-02-22T15:43:19;97647.34;;;12.17;80.61
43155;BME280;34212;51.018;13.586;2023-02-22T15:48:26;97646.03;;;12.07;81.12
43155;BME280;34212;51.018;13.586;2023-02-22T15:53:34;97648.00;;;11.98;81.15
43155;BME280;34212;51.018;13.586;2023-02-22T15:58:41;97650.56;;;11.85;80.94
43155;BME280;34212;51.018;13.586;2023-02-22T16:03:53;97646.53;;;11.74;80.94
43155;BME280;34212;51.018;13.586;2023-02-22T16:08:58;97643.56;;;11.62;81.43
43155;BME280;34212;51.018;13.586;2023-02-22T16:14:02;97644.88;;;11.51;81.24
43155;BME280;34212;51.018;13.586;2023-02-22T16:24:27;97639.88;;;11.27;81.76
43155;BME280;34212;51.018;13.586;2023-02-22T16:29:29;97642.19;;;11.15;81.55
43155;BME280;34212;51.018;13.586;2023-02-22T16:34:30;97646.19;;;11.04;82.21
43155;BME280;34212;51.018;13.586;2023-02-22T16:39:32;97644.84;;;10.94;82.18
43155;BME280;34212;51.018;13.586;2023-02-22T16:44:36;97643.09;;;10.86;82.22
43155;BME280;34212;51.018;13.586;2023-02-22T16:49:37;97652.84;;;10.79;82.82
43155;BME280;34212;51.018;13.586;2023-02-22T16:54:42;97635.09;;;10.71;82.75
43155;BME280;34212;51.018;13.586;2023-02-22T16:59:46;97642.81;;;10.66;83.04
43155;BME280;34212;51.018;13.586;2023-02-22T17:04:50;97648.06;;;10.59;83.12
43155;BME280;34212;51.018;13.586;2023-02-22T17:09:52;97637.28;;;10.53;83.50
43155;BME280;34212;51.018;13.586;2023-02-22T17:14:53;97642.53;;;10.46;83.59
43155;BME280;34212;51.018;13.586;2023-02-22T17:19:55;97643.47;;;10.38;83.65
43155;BME280;34212;51.018;13.586;2023-02-22T17:24:56;97644.72;;;10.28;83.39
43155;BME280;34212;51.018;13.586;2023-02-22T17:29:57;97649.28;;;10.19;83.72
43155;BME280;34212;51.018;13.586;2023-02-22T17:34:59;97646.13;;;10.15;83.79
43155;BME280;34212;51.018;13.586;2023-02-22T17:40:00;97648.53;;;10.10;83.78
43155;BME280;34212;51.018;13.586;2023-02-22T17:45:02;97642.75;;;10.07;84.45
43155;BME280;34212;51.018;13.586;2023-02-22T17:50:04;97635.28;;;10.02;84.35
43155;BME280;34212;51.018;13.586;2023-02-22T17:55:06;97630.84;;;9.94;84.08
43155;BME280;34212;51.018;13.586;2023-02-22T18:00:09;97634.59;;;9.85;84.16
43155;BME280;34212;51.018;13.586;2023-02-22T18:05:13;97627.84;;;9.75;83.88
43155;BME280;34212;51.018;13.586;2023-02-22T18:10:18;97626.91;;;9.67;83.79
43155;BME280;34212;51.018;13.586;2023-02-22T18:15:20;97620.66;;;9.60;85.11
43155;BME280;34212;51.018;13.586;2023-02-22T18:20:22;97625.66;;;9.55;85.22
43155;BME280;34212;51.018;13.586;2023-02-22T18:25:50;97616.19;;;9.53;85.15
43155;BME280;34212;51.018;13.586;2023-02-22T18:31:11;97619.56;;;9.46;85.14
43155;BME280;34212;51.018;13.586;2023-02-22T18:36:17;97613.78;;;9.43;85.18
43155;BME280;34212;51.018;13.586;2023-02-22T18:41:28;97608.19;;;9.38;84.78
43155;BME280;34212;51.018;13.586;2023-02-22T18:46:30;97613.19;;;9.33;84.90
43155;BME280;34212;51.018;13.586;2023-02-22T18:51:31;97614.38;;;9.30;85.14
43155;BME280;34212;51.018;13.586;2023-02-22T18:56:33;97606.25;;;9.23;85.11
43155;BME280;34212;51.018;13.586;2023-02-22T19:01:34;97605.94;;;9.18;84.81
43155;BME280;34212;51.018;13.586;2023-02-22T19:06:39;97604.00;;;9.12;84.99
43155;BME280;34212;51.018;13.586;2023-02-22T19:11:41;97602.03;;;9.06;84.70
43155;BME280;34212;51.018;13.586;2023-02-22T19:16:48;97599.09;;;9.01;84.62
43155;BME280;34212;51.018;13.586;2023-02-22T19:21:50;97591.47;;;8.98;85.03
43155;BME280;34212;51.018;13.586;2023-02-22T19:26:52;97588.13;;;8.96;84.80
43155;BME280;34212;51.018;13.586;2023-02-22T19:31:59;97586.84;;;8.92;85.36
43155;BME280;34212;51.018;13.586;2023-02-22T19:37:01;97588.16;;;8.88;85.54
43155;BME280;34212;51.018;13.586;2023-02-22T19:42:05;97586.88;;;8.84;85.20
43155;BME280;34212;51.018;13.586;2023-02-22T19:47:09;97586.59;;;8.78;85.45
43155;BME280;34212;51.018;13.586;2023-02-22T19:52:11;97579.78;;;8.76;85.12
43155;BME280;34212;51.018;13.586;2023-02-22T19:57:13;97574.97;;;8.71;85.61
43155;BME280;34212;51.018;13.586;2023-02-22T20:02:14;97574.69;;;8.66;84.95
43155;BME280;34212;51.018;13.586;2023-02-22T20:07:16;97578.97;;;8.67;85.24
43155;BME280;34212;51.018;13.586;2023-02-22T20:12:18;97571.34;;;8.64;85.90
43155;BME280;34212;51.018;13.586;2023-02-22T20:17:20;97578.03;;;8.60;85.98
43155;BME280;34212;51.018;13.586;2023-02-22T20:22:21;97582.69;;;8.58;85.92
43155;BME280;34212;51.018;13.586;2023-02-22T20:27:23;97580.16;;;8.56;85.80
43155;BME280;34212;51.018;13.586;2023-02-22T20:32:24;97580.38;;;8.55;85.60
43155;BME280;34212;51.018;13.586;2023-02-22T20:37:30;97571.56;;;8.54;86.38
43155;BME280;34212;51.018;13.586;2023-02-22T20:42:33;97572.72;;;8.52;86.17
43155;BME280;34212;51.018;13.586;2023-02-22T20:47:35;97572.91;;;8.50;85.82
43155;BME280;34212;51.018;13.586;2023-02-22T20:52:36;97560.94;;;8.46;85.94
43155;BME280;34212;51.018;13.586;2023-02-22T20:57:38;97557.47;;;8.46;85.64
43155;BME280;34212;51.018;13.586;2023-02-22T21:02:40;97555.81;;;8.45;86.62
43155;BME280;34212;51.018;13.586;2023-02-22T21:07:42;97562.78;;;8.46;86.10
43155;BME280;34212;51.018;13.586;2023-02-22T21:12:43;97558.50;;;8.45;86.59
43155;BME280;34212;51.018;13.586;2023-02-22T21:17:48;97563.81;;;8.45;86.25
43155;BME280;34212;51.018;13.586;2023-02-22T21:22:49;97562.13;;;8.44;85.88
43155;BME280;34212;51.018;13.586;2023-02-22T21:27:52;97554.16;;;8.44;86.58
43155;BME280;34212;51.018;13.586;2023-02-22T21:32:55;97544.19;;;8.46;86.54
43155;BME280;34212;51.018;13.586;2023-02-22T21:37:57;97553.31;;;8.51;87.02
43155;BME280;34212;51.018;13.586;2023-02-22T21:42:58;97539.66;;;8.54;86.69
43155;BME280;34212;51.018;13.586;2023-02-22T21:48:00;97541.31;;;8.55;86.07
43155;BME280;34212;51.018;13.586;2023-02-22T21:53:01;97544.78;;;8.56;86.50
43155;BME280;34212;51.018;13.586;2023-02-22T21:58:03;97537.16;;;8.53;86.26
43155;BME280;34212;51.018;13.586;2023-02-22T22:03:06;97534.50;;;8.53;87.22
43155;BME280;34212;51.018;13.586;2023-02-22T22:08:20;97532.69;;;8.53;86.38
43155;BME280;34212;51.018;13.586;2023-02-22T22:13:23;97529.88;;;8.55;86.91
43155;BME280;34212;51.018;13.586;2023-02-22T22:18:28;97536.47;;;8.59;87.30
43155;BME280;34212;51.018;13.586;2023-02-22T22:23:29;97534.47;;;8.61;87.00
43155;BME280;34212;51.018;13.586;2023-02-22T22:28:31;97530.00;;;8.62;87.30
43155;BME280;34212;51.018;13.586;2023-02-22T22:33:33;97526.31;;;8.63;86.83
43155;BME280;34212;51.018;13.586;2023-02-22T22:38:36;97521.84;;;8.63;87.43
43155;BME280;34212;51.018;13.586;2023-02-22T22:43:41;97532.13;;;8.66;87.40
43155;BME280;34212;51.018;13.586;2023-02-22T22:48:46;97525.81;;;8.67;87.43
43155;BME280;34212;51.018;13.586;2023-02-22T22:53:49;97522.13;;;8.68;86.62
43155;BME280;34212;51.018;13.586;2023-02-22T22:58:53;97524.16;;;8.66;87.04
43155;BME280;34212;51.018;13.586;2023-02-22T23:03:57;97526.81;;;8.66;86.90
43155;BME280;34212;51.018;13.586;2023-02-22T23:14:20;97530.13;;;8.68;86.58
43155;BME280;34212;51.018;13.586;2023-02-22T23:19:22;97531.13;;;8.67;86.50
43155;BME280;34212;51.018;13.586;2023-02-22T23:24:25;97525.97;;;8.66;87.06
43155;BME280;34212;51.018;13.586;2023-02-22T23:29:29;97532.78;;;8.68;86.70
43155;BME280;34212;51.018;13.586;2023-02-22T23:34:31;97532.63;;;8.70;86.59
43155;BME280;34212;51.018;13.586;2023-02-22T23:39:33;97536.09;;;8.70;86.47
43155;BME280;34212;51.018;13.586;2023-02-22T23:44:35;97535.09;;;8.71;86.70
43155;BME280;34212;51.018;13.586;2023-02-22T23:49:36;97532.78;;;8.68;86.76
43155;BME280;34212;51.018;13.586;2023-02-22T23:54:38;97532.13;;;8.66;86.85
43155;BME280;34212;51.018;13.586;2023-02-22T23:59:44;97535.78;;;8.65;86.43
